sensor_id;sensor_type;location;lat;lon;timestamp;pressure;altitude;pressure_sealevel;temperature;humidity
2711;BME280;20721;47.402;8.550;2023-05-01T00:00:06;95954;;;16.28;48.96
2711;BME280;20721;47.402;8.550;2023-05-01T00:01:05;95952;;;16.29;48.99
2711;BME280;20721;47.402;8.550;2023-05-01T00:02:05;95951;;;16.31;49.03
2711;BME280;20721;47.402;8.550;2023-05-01T00:03:06;95949;;;16.30;49.15
2711;BME280;20721;47.402;8.550;2023-05-01T00:06:06;95946;;;16.29;48.78
2711;BME280;20721;47.402;8.550;2023-05-01T00:07:05;95943;;;16.30;48.91
2711;BME280;20721;47.402;8.550;2023-05-01T00:08:05;95945;;;16.31;49.04
2711;BME280;20721;47.402;8.550;2023-05-01T00:09:06;95948;;;16.30;49.16
2711;BME280;20721;47.402;8.550;2023-05-01T00:10:06;95946;;;16.31;49.23
2711;BME280;20721;47.402;8.550;2023-05-01T00:11:10;95946;;;16.30;49.05
2711;BME280;20721;47.402;8.550;2023-05-01T00:13:06;95939;;;16.29;48.75
2711;BME280;20721;47.402;8.550;2023-05-01T00:14:05;95940;;;16.30;48.99
2711;BME280;20721;47.402;8.550;2023-05-01T00:17:05;95943;;;16.28;49.19
2711;BME280;20721;47.402;8.550;2023-05-01T00:21:05;95942;;;16.26;49.69
2711;BME280;20721;47.402;8.550;2023-05-01T00:24:05;95940;;;16.27;49.82
2711;BME280;20721;47.402;8.550;2023-05-01T00:25:06;95941;;;16.26;50.06
2711;BME280;20721;47.402;8.550;2023-05-01T00:26:06;95941;;;16.24;50.35
2711;BME280;20721;47.402;8.550;2023-05-01T00:27:06;95943;;;16.21;50.67
2711;BME280;20721;47.402;8.550;2023-05-01T00:28:06;95940;;;16.17;50.77
2711;BME280;20721;47.402;8.550;2023-05-01T00:33:06;95942;;;16.15;51.62
2711;BME280;20721;47.402;8.550;2023-05-01T00:34:06;95942;;;16.11;52.08
2711;BME280;20721;47.402;8.550;2023-05-01T00:35:06;95941;;;16.10;52.00
2711;BME280;20721;47.402;8.550;2023-05-01T00:36:05;95940;;;16.09;52.32
2711;BME280;20721;47.402;8.550;2023-05-01T00:38:06;95937;;;16.04;52.61
2711;BME280;20721;47.402;8.550;2023-05-01T00:39:07;95938;;;15.94;52.65
2711;BME280;20721;47.402;8.550;2023-05-01T00:40:06;95938;;;15.88;53.17
2711;BME280;20721;47.402;8.550;2023-05-01T00:41:05;95938;;;15.83;53.66
2711;BME280;20721;47.402;8.550;2023-05-01T00:42:05;95935;;;15.82;54.70
2711;BME280;20721;47.402;8.550;2023-05-01T00:43:05;95938;;;15.76;54.25
2711;BME280;20721;47.402;8.550;2023-05-01T00:44:06;95938;;;15.69;54.47
2711;BME280;20721;47.402;8.550;2023-05-01T00:45:06;95939;;;15.66;55.02
2711;BME280;20721;47.402;8.550;2023-05-01T00:46:06;95941;;;15.55;54.73
2711;BME280;20721;47.402;8.550;2023-05-01T00:47:06;95938;;;15.44;55.82
2711;BME280;20721;47.402;8.550;2023-05-01T00:48:06;95937;;;15.38;56.30
2711;BME280;20721;47.402;8.550;2023-05-01T00:49:06;95938;;;15.24;56.35
2711;BME280;20721;47.402;8.550;2023-05-01T00:50:06;95938;;;15.18;57.01
2711;BME280;20721;47.402;8.550;2023-05-01T00:51:06;95939;;;15.12;57.70
2711;BME280;20721;47.402;8.550;2023-05-01T00:52:05;95940;;;15.05;57.36
2711;BME280;20721;47.402;8.550;2023-05-01T00:53:06;95938;;;15.02;57.68
2711;BME280;20721;47.402;8.550;2023-05-01T00:55:06;95942;;;14.99;57.71
2711;BME280;20721;47.402;8.550;2023-05-01T00:56:06;95938;;;14.92;57.66
2711;BME280;20721;47.402;8.550;2023-05-01T00:57:08;95937;;;14.90;58.31
2711;BME280;20721;47.402;8.550;2023-05-01T00:58:06;95939;;;14.91;58.59
2711;BME280;20721;47.402;8.550;2023-05-01T00:59:06;95935;;;14.92;58.88
2711;BME280;20721;47.402;8.550;2023-05-01T01:00:06;95938;;;14.94;59.20
2711;BME280;20721;47.402;8.550;2023-05-01T01:01:07;95935;;;14.97;59.15
2711;BME280;20721;47.402;8.550;2023-05-01T01:02:06;95934;;;14.95;59.14
2711;BME280;20721;47.402;8.550;2023-05-01T01:03:06;95936;;;14.87;59.03
2711;BME280;20721;47.402;8.550;2023-05-01T01:04:06;95937;;;14.76;59.00
2711;BME280;20721;47.402;8.550;2023-05-01T01:05:06;95940;;;14.66;59.20
2711;BME280;20721;47.402;8.550;2023-05-01T01:06:08;95939;;;14.57;59.77
2711;BME280;20721;47.402;8.550;2023-05-01T01:07:08;95936;;;14.53;60.09
2711;BME280;20721;47.402;8.550;2023-05-01T01:08:17;95936;;;14.51;60.23
2711;BME280;20721;47.402;8.550;2023-05-01T01:11:23;95930;;;14.42;61.55
2711;BME280;20721;47.402;8.550;2023-05-01T01:13:08;95929;;;14.50;61.60
2711;BME280;20721;47.402;8.550;2023-05-01T01:15:09;95929;;;14.47;61.32
2711;BME280;20721;47.402;8.550;2023-05-01T01:16:08;95928;;;14.46;61.24
2711;BME280;20721;47.402;8.550;2023-05-01T01:17:10;95928;;;14.44;61.71
2711;BME280;20721;47.402;8.550;2023-05-01T01:18:08;95930;;;14.45;62.37
2711;BME280;20721;47.402;8.550;2023-05-01T01:19:19;95925;;;14.44;62.26
2711;BME280;20721;47.402;8.550;2023-05-01T01:21:07;95926;;;14.40;62.82
2711;BME280;20721;47.402;8.550;2023-05-01T01:22:09;95926;;;14.39;62.56
2711;BME280;20721;47.402;8.550;2023-05-01T01:32:09;95925;;;14.34;62.56
2711;BME280;20721;47.402;8.550;2023-05-01T01:33:24;;;;14.35;
2711;BME280;20721;47.402;8.550;2023-05-01T01:34:08;95926;;;14.36;62.81
2711;BME280;20721;47.402;8.550;2023-05-01T01:35:09;95927;;;14.31;62.13
2711;BME280;20721;47.402;8.550;2023-05-01T01:37:09;95929;;;14.35;62.82
2711;BME280;20721;47.402;8.550;2023-05-01T01:38:08;95926;;;14.38;63.10
2711;BME280;20721;47.402;8.550;2023-05-01T01:39:08;95924;;;14.41;63.38
2711;BME280;20721;47.402;8.550;2023-05-01T01:41:07;95929;;;14.44;62.42
2711;BME280;20721;47.402;8.550;2023-05-01T01:42:08;95927;;;14.43;61.81
2711;BME280;20721;47.402;8.550;2023-05-01T01:43:06;95926;;;14.42;62.35
2711;BME280;20721;47.402;8.550;2023-05-01T01:44:08;95930;;;14.43;62.18
2711;BME280;20721;47.402;8.550;2023-05-01T01:45:16;95927;;;14.44;61.89
2711;BME280;20721;47.402;8.550;2023-05-01T01:46:06;95929;;;14.45;61.86
2711;BME280;20721;47.402;8.550;2023-05-01T01:47:07;95928;;;14.46;61.88
2711;BME280;20721;47.402;8.550;2023-05-01T01:49:06;95931;;;14.49;61.92
2711;BME280;20721;47.402;8.550;2023-05-01T01:50:06;95930;;;14.51;62.01
2711;BME280;20721;47.402;8.550;2023-05-01T01:51:07;95929;;;14.52;62.36
2711;BME280;20721;47.402;8.550;2023-05-01T01:53:07;95933;;;14.53;61.79
2711;BME280;20721;47.402;8.550;2023-05-01T01:54:06;95929;;;14.52;61.52
2711;BME280;20721;47.402;8.550;2023-05-01T02:00:08;95931;;;14.53;62.47
2711;BME280;20721;47.402;8.550;2023-05-01T02:01:06;95930;;;14.54;62.56
2711;BME280;20721;47.402;8.550;2023-05-01T02:02:06;95927;;;14.55;62.32
2711;BME280;20721;47.402;8.550;2023-05-01T02:04:06;95923;;;14.56;62.04
2711;BME280;20721;47.402;8.550;2023-05-01T02:07:06;95922;;;14.57;62.41
2711;BME280;20721;47.402;8.550;2023-05-01T02:08:06;95922;;;14.56;62.97
2711;BME280;20721;47.402;8.550;2023-05-01T02:09:06;95925;;;14.53;63.32
2711;BME280;20721;47.402;8.550;2023-05-01T02:10:10;95922;;;14.52;63.44
2711;BME280;20721;47.402;8.550;2023-05-01T02:11:06;95921;;;14.54;63.66
2711;BME280;20721;47.402;8.550;2023-05-01T02:12:06;95922;;;14.53;62.91
2711;BME280;20721;47.402;8.550;2023-05-01T02:13:06;95918;;;14.54;63.37
2711;BME280;20721;47.402;8.550;2023-05-01T02:14:07;95917;;;14.57;62.73
2711;BME280;20721;47.402;8.550;2023-05-01T02:15:07;95918;;;14.58;62.61
2711;BME280;20721;47.402;8.550;2023-05-01T02:17:06;95920;;;14.57;63.40
2711;BME280;20721;47.402;8.550;2023-05-01T02:18:06;95917;;;14.58;62.73
2711;BME280;20721;47.402;8.550;2023-05-01T02:19:06;95919;;;14.59;63.27
2711;BME280;20721;47.402;8.550;2023-05-01T02:21:06;95922;;;14.58;63.49
2711;BME280;20721;47.402;8.550;2023-05-01T02:22:06;95920;;;14.61;63.51
2711;BME280;20721;47.402;8.550;2023-05-01T02:23:06;95916;;;14.63;62.90
2711;BME280;20721;47.402;8.550;2023-05-01T02:24:06;95915;;;14.61;62.48
2711;BME280;20721;47.402;8.550;2023-05-01T02:25:07;95918;;;14.60;62.92
2711;BME280;20721;47.402;8.550;2023-05-01T02:26:06;95916;;;14.59;63.34
2711;BME280;20721;47.402;8.550;2023-05-01T02:27:07;95920;;;14.57;63.43
2711;BME280;20721;47.402;8.550;2023-05-01T02:28:13;95923;;;14.55;63.06
2711;BME280;20721;47.402;8.550;2023-05-01T02:29:06;95920;;;14.54;62.52
2711;BME280;20721;47.402;8.550;2023-05-01T02:30:06;95919;;;14.53;63.08
2711;BME280;20721;47.402;8.550;2023-05-01T02:31:06;95919;;;14.50;63.24
2711;BME280;20721;47.402;8.550;2023-05-01T02:32:06;95918;;;14.47;63.73
2711;BME280;20721;47.402;8.550;2023-05-01T02:34:06;95916;;;14.46;63.87
2711;BME280;20721;47.402;8.550;2023-05-01T02:35:06;95918;;;14.48;63.61
2711;BME280;20721;47.402;8.550;2023-05-01T02:36:06;95914;;;14.49;63.75
2711;BME280;20721;47.402;8.550;2023-05-01T02:37:06;95915;;;14.50;63.45
2711;BME280;20721;47.402;8.550;2023-05-01T02:38:06;95915;;;14.51;63.24
2711;BME280;20721;47.402;8.550;2023-05-01T02:39:06;95911;;;14.52;63.10
2711;BME280;20721;47.402;8.550;2023-05-01T02:41:06;95910;;;14.49;63.28
2711;BME280;20721;47.402;8.550;2023-05-01T02:42:07;95905;;;14.48;63.06
2711;BME280;20721;47.402;8.550;2023-05-01T02:44:06;95905;;;14.49;63.49
2711;BME280;20721;47.402;8.550;2023-05-01T02:45:06;95906;;;14.50;63.49
2711;BME280;20721;47.402;8.550;2023-05-01T02:46:06;95910;;;14.49;63.43
2711;BME280;20721;47.402;8.550;2023-05-01T02:47:06;95907;;;14.50;63.33
2711;BME280;20721;47.402;8.550;2023-05-01T02:48:06;95904;;;14.48;63.26
2711;BME280;20721;47.402;8.550;2023-05-01T02:49:06;95904;;;14.47;63.09
2711;BME280;20721;47.402;8.550;2023-05-01T02:51:06;95904;;;14.46;62.97
2711;BME280;20721;47.402;8.550;2023-05-01T02:52:06;95904;;;14.44;63.12
2711;BME280;20721;47.402;8.550;2023-05-01T02:56:07;95903;;;14.41;63.94
2711;BME280;20721;47.402;8.550;2023-05-01T02:57:06;95907;;;14.38;63.99
2711;BME280;20721;47.402;8.550;2023-05-01T03:00:08;95905;;;14.36;63.35
2711;BME280;20721;47.402;8.550;2023-05-01T03:02:06;95904;;;14.37;63.89
2711;BME280;20721;47.402;8.550;2023-05-01T03:04:07;95903;;;14.39;63.73
2711;BME280;20721;47.402;8.550;2023-05-01T03:05:06;95903;;;14.38;63.53
2711;BME280;20721;47.402;8.550;2023-05-01T03:06:06;95902;;;14.35;63.42
2711;BME280;20721;47.402;8.550;2023-05-01T03:07:06;95903;;;14.32;63.65
2711;BME280;20721;47.402;8.550;2023-05-01T03:08:06;95903;;;14.30;63.49
2711;BME280;20721;47.402;8.550;2023-05-01T03:10:06;95900;;;14.27;63.62
2711;BME280;20721;47.402;8.550;2023-05-01T03:11:06;95902;;;14.25;64.00
2711;BME280;20721;47.402;8.550;2023-05-01T03:12:06;95903;;;14.23;63.51
2711;BME280;20721;47.402;8.550;2023-05-01T03:13:06;95903;;;14.20;63.17
2711;BME280;20721;47.402;8.550;2023-05-01T03:14:06;95899;;;14.15;63.68
2711;BME280;20721;47.402;8.550;2023-05-01T03:15:06;95899;;;14.13;64.14
2711;BME280;20721;47.402;8.550;2023-05-01T03:18:06;95896;;;14.14;64.34
2711;BME280;20721;47.402;8.550;2023-05-01T03:20:06;95897;;;14.15;64.21
2711;BME280;20721;47.402;8.550;2023-05-01T03:22:06;95897;;;14.16;63.61
2711;BME280;20721;47.402;8.550;2023-05-01T03:23:06;95901;;;14.14;63.07
2711;BME280;20721;47.402;8.550;2023-05-01T03:25:06;95904;;;14.12;63.11
2711;BME280;20721;47.402;8.550;2023-05-01T03:26:06;95900;;;14.13;63.08
2711;BME280;20721;47.402;8.550;2023-05-01T03:27:06;95901;;;14.12;62.98
2711;BME280;20721;47.402;8.550;2023-05-01T03:28:06;95900;;;14.11;63.54
2711;BME280;20721;47.402;8.550;2023-05-01T03:29:06;95901;;;14.09;63.40
2711;BME280;20721;47.402;8.550;2023-05-01T03:30:07;95896;;;14.10;63.28
2711;BME280;20721;47.402;8.550;2023-05-01T03:32:06;95895;;;14.11;63.80
2711;BME280;20721;47.402;8.550;2023-05-01T03:33:06;95893;;;14.12;63.84
2711;BME280;20721;47.402;8.550;2023-05-01T03:34:06;95892;;;14.14;63.72
2711;BME280;20721;47.402;8.550;2023-05-01T03:35:06;95894;;;14.13;63.83
2711;BME280;20721;47.402;8.550;2023-05-01T03:36:07;95897;;;14.14;64.00
2711;BME280;20721;47.402;8.550;2023-05-01T03:38:06;95894;;;14.16;64.25
2711;BME280;20721;47.402;8.550;2023-05-01T03:39:07;95896;;;14.17;64.19
2711;BME280;20721;47.402;8.550;2023-05-01T03:40:06;95892;;;14.14;63.86
2711;BME280;20721;47.402;8.550;2023-05-01T03:42:06;95891;;;14.15;64.41
2711;BME280;20721;47.402;8.550;2023-05-01T03:43:06;95893;;;14.14;63.56
2711;BME280;20721;47.402;8.550;2023-05-01T03:46:06;95891;;;14.12;63.70
2711;BME280;20721;47.402;8.550;2023-05-01T03:47:06;95893;;;14.09;64.03
2711;BME280;20721;47.402;8.550;2023-05-01T03:48:06;95894;;;14.08;63.62
2711;BME280;20721;47.402;8.550;2023-05-01T03:49:06;95893;;;14.09;63.71
2711;BME280;20721;47.402;8.550;2023-05-01T03:50:06;95894;;;14.06;63.57
2711;BME280;20721;47.402;8.550;2023-05-01T03:51:06;95895;;;14.08;63.91
2711;BME280;20721;47.402;8.550;2023-05-01T03:53:06;95896;;;14.04;63.27
2711;BME280;20721;47.402;8.550;2023-05-01T03:54:06;95891;;;14.00;63.39
2711;BME280;20721;47.402;8.550;2023-05-01T03:55:07;95893;;;13.98;63.51
2711;BME280;20721;47.402;8.550;2023-05-01T03:56:06;95893;;;13.96;63.73
2711;BME280;20721;47.402;8.550;2023-05-01T03:58:06;95892;;;13.95;63.52
2711;BME280;20721;47.402;8.550;2023-05-01T03:59:06;95893;;;13.94;63.00
2711;BME280;20721;47.402;8.550;2023-05-01T04:00:06;95888;;;13.89;63.27
2711;BME280;20721;47.402;8.550;2023-05-01T04:02:06;95892;;;13.91;64.12
2711;BME280;20721;47.402;8.550;2023-05-01T04:03:06;95890;;;13.93;64.17
2711;BME280;20721;47.402;8.550;2023-05-01T04:04:06;95888;;;13.92;63.28
2711;BME280;20721;47.402;8.550;2023-05-01T04:05:06;95888;;;13.89;62.99
2711;BME280;20721;47.402;8.550;2023-05-01T04:07:06;95887;;;13.88;63.52
2711;BME280;20721;47.402;8.550;2023-05-01T04:08:06;95888;;;13.89;63.57
2711;BME280;20721;47.402;8.550;2023-05-01T04:09:07;95885;;;13.87;63.73
2711;BME280;20721;47.402;8.550;2023-05-01T04:10:08;95890;;;13.89;63.94
2711;BME280;20721;47.402;8.550;2023-05-01T04:11:06;95889;;;13.85;64.00
2711;BME280;20721;47.402;8.550;2023-05-01T04:12:06;95891;;;13.86;63.82
2711;BME280;20721;47.402;8.550;2023-05-01T04:13:06;95890;;;13.85;63.52
2711;BME280;20721;47.402;8.550;2023-05-01T04:14:06;95892;;;13.82;63.46
2711;BME280;20721;47.402;8.550;2023-05-01T04:15:06;95892;;;13.80;63.63
2711;BME280;20721;47.402;8.550;2023-05-01T04:17:06;95895;;;13.79;63.61
2711;BME280;20721;47.402;8.550;2023-05-01T04:18:06;95895;;;13.74;64.06
2711;BME280;20721;47.402;8.550;2023-05-01T04:19:06;95897;;;13.73;64.31
2711;BME280;20721;47.402;8.550;2023-05-01T04:20:06;95896;;;13.74;64.02
2711;BME280;20721;47.402;8.550;2023-05-01T04:21:06;95898;;;13.75;64.37
2711;BME280;20721;47.402;8.550;2023-05-01T04:22:06;95895;;;13.76;64.54
2711;BME280;20721;47.402;8.550;2023-05-01T04:23:08;95895;;;13.77;64.65
2711;BME280;20721;47.402;8.550;2023-05-01T04:24:06;95898;;;13.78;64.68
2711;BME280;20721;47.402;8.550;2023-05-01T04:25:07;95896;;;13.81;64.11
2711;BME280;20721;47.402;8.550;2023-05-01T04:26:06;95899;;;13.83;64.04
2711;BME280;20721;47.402;8.550;2023-05-01T04:27:06;95896;;;13.85;64.46
2711;BME280;20721;47.402;8.550;2023-05-01T04:28:06;95898;;;13.86;64.33
2711;BME280;20721;47.402;8.550;2023-05-01T04:29:06;95895;;;13.87;64.40
2711;BME280;20721;47.402;8.550;2023-05-01T04:32:06;95899;;;13.88;64.44
2711;BME280;20721;47.402;8.550;2023-05-01T04:33:10;95897;;;13.89;64.61
2711;BME280;20721;47.402;8.550;2023-05-01T04:34:06;95902;;;13.90;64.62
2711;BME280;20721;47.402;8.550;2023-05-01T04:35:06;95902;;;13.93;64.14
2711;BME280;20721;47.402;8.550;2023-05-01T04:36:06;95905;;;13.95;64.59
2711;BME280;20721;47.402;8.550;2023-05-01T04:37:08;95901;;;13.96;64.53
2711;BME280;20721;47.402;8.550;2023-05-01T04:39:06;95903;;;13.98;64.10
2711;BME280;20721;47.402;8.550;2023-05-01T04:40:07;95905;;;13.99;63.93
2711;BME280;20721;47.402;8.550;2023-05-01T04:41:06;95905;;;14.00;64.15
2711;BME280;20721;47.402;8.550;2023-05-01T04:42:06;95906;;;14.01;64.06
2711;BME280;20721;47.402;8.550;2023-05-01T04:44:06;95907;;;14.02;64.34
2711;BME280;20721;47.402;8.550;2023-05-01T04:46:06;95907;;;14.04;63.44
2711;BME280;20721;47.402;8.550;2023-05-01T04:47:06;95909;;;14.05;63.38
2711;BME280;20721;47.402;8.550;2023-05-01T04:49:07;95909;;;14.06;64.10
2711;BME280;20721;47.402;8.550;2023-05-01T04:50:07;95911;;;14.05;64.12
2711;BME280;20721;47.402;8.550;2023-05-01T04:54:06;95910;;;14.04;63.68
2711;BME280;20721;47.402;8.550;2023-05-01T04:55:06;95911;;;14.06;63.82
2711;BME280;20721;47.402;8.550;2023-05-01T04:56:06;95910;;;14.04;63.85
2711;BME280;20721;47.402;8.550;2023-05-01T04:57:06;95912;;;14.03;63.45
2711;BME280;20721;47.402;8.550;2023-05-01T04:58:06;95912;;;14.00;64.07
2711;BME280;20721;47.402;8.550;2023-05-01T04:59:06;95912;;;14.02;63.86
2711;BME280;20721;47.402;8.550;2023-05-01T05:00:07;95913;;;14.01;64.21
2711;BME280;20721;47.402;8.550;2023-05-01T05:01:06;95913;;;14.00;63.95
2711;BME280;20721;47.402;8.550;2023-05-01T05:02:07;95915;;;14.02;63.66
2711;BME280;20721;47.402;8.550;2023-05-01T05:03:06;95914;;;14.01;64.08
2711;BME280;20721;47.402;8.550;2023-05-01T05:05:06;95921;;;14.02;64.00
2711;BME280;20721;47.402;8.550;2023-05-01T05:06:06;95921;;;14.01;64.30
2711;BME280;20721;47.402;8.550;2023-05-01T05:07:08;95923;;;13.99;64.19
2711;BME280;20721;47.402;8.550;2023-05-01T05:10:06;95923;;;13.98;64.03
2711;BME280;20721;47.402;8.550;2023-05-01T05:12:06;95925;;;13.96;64.25
2711;BME280;20721;47.402;8.550;2023-05-01T05:13:06;95926;;;13.95;64.49
2711;BME280;20721;47.402;8.550;2023-05-01T05:14:06;95926;;;13.98;64.69
2711;BME280;20721;47.402;8.550;2023-05-01T05:16:06;95924;;;14.00;64.99
2711;BME280;20721;47.402;8.550;2023-05-01T05:17:06;95927;;;14.01;64.78
2711;BME280;20721;47.402;8.550;2023-05-01T05:18:06;95928;;;14.03;64.27
2711;BME280;20721;47.402;8.550;2023-05-01T05:19:06;95925;;;14.04;64.19
2711;BME280;20721;47.402;8.550;2023-05-01T05:20:06;95927;;;14.05;64.21
2711;BME280;20721;47.402;8.550;2023-05-01T05:21:07;95926;;;14.03;64.31
2711;BME280;20721;47.402;8.550;2023-05-01T05:22:06;95924;;;14.05;64.46
2711;BME280;20721;47.402;8.550;2023-05-01T05:23:08;95927;;;14.07;64.58
2711;BME280;20721;47.402;8.550;2023-05-01T05:24:06;95928;;;14.09;64.13
2711;BME280;20721;47.402;8.550;2023-05-01T05:25:06;95927;;;14.11;64.60
2711;BME280;20721;47.402;8.550;2023-05-01T05:26:06;95929;;;14.12;64.92
2711;BME280;20721;47.402;8.550;2023-05-01T05:27:07;95932;;;14.16;64.52
2711;BME280;20721;47.402;8.550;2023-05-01T05:28:06;95930;;;14.18;64.66
2711;BME280;20721;47.402;8.550;2023-05-01T05:29:06;95930;;;14.21;64.72
2711;BME280;20721;47.402;8.550;2023-05-01T05:30:06;95933;;;14.24;64.52
2711;BME280;20721;47.402;8.550;2023-05-01T05:31:06;95933;;;14.26;64.36
2711;BME280;20721;47.402;8.550;2023-05-01T05:32:06;95930;;;14.25;64.18
2711;BME280;20721;47.402;8.550;2023-05-01T05:33:07;95928;;;14.26;64.21
2711;BME280;20721;47.402;8.550;2023-05-01T05:34:07;95933;;;14.27;64.34
2711;BME280;20721;47.402;8.550;2023-05-01T05:36:06;95929;;;14.29;64.20
2711;BME280;20721;47.402;8.550;2023-05-01T05:37:07;95930;;;14.30;64.34
2711;BME280;20721;47.402;8.550;2023-05-01T05:38:06;95931;;;14.32;64.43
2711;BME280;20721;47.402;8.550;2023-05-01T05:40:06;95932;;;14.33;64.71
2711;BME280;20721;47.402;8.550;2023-05-01T05:41:06;95933;;;14.34;64.70
2711;BME280;20721;47.402;8.550;2023-05-01T05:42:07;95934;;;14.32;64.66
2711;BME280;20721;47.402;8.550;2023-05-01T05:43:07;95935;;;14.34;64.76
2711;BME280;20721;47.402;8.550;2023-05-01T05:45:06;95935;;;14.35;64.90
2711;BME280;20721;47.402;8.550;2023-05-01T05:46:06;95937;;;14.36;64.72
2711;BME280;20721;47.402;8.550;2023-05-01T05:47:06;95939;;;14.35;64.06
2711;BME280;20721;47.402;8.550;2023-05-01T05:48:06;95938;;;14.33;63.81
2711;BME280;20721;47.402;8.550;2023-05-01T05:49:06;95936;;;14.31;63.69
2711;BME280;20721;47.402;8.550;2023-05-01T05:50:07;95937;;;14.29;64.16
2711;BME280;20721;47.402;8.550;2023-05-01T05:54:06;95942;;;14.31;64.99
2711;BME280;20721;47.402;8.550;2023-05-01T05:55:06;95939;;;14.32;64.52
2711;BME280;20721;47.402;8.550;2023-05-01T05:56:06;95939;;;14.33;64.15
2711;BME280;20721;47.402;8.550;2023-05-01T05:58:06;95943;;;14.34;64.49
2711;BME280;20721;47.402;8.550;2023-05-01T05:59:07;95942;;;14.35;64.92
2711;BME280;20721;47.402;8.550;2023-05-01T06:01:08;95940;;;14.36;64.19
2711;BME280;20721;47.402;8.550;2023-05-01T06:03:06;95941;;;14.37;64.13
2711;BME280;20721;47.402;8.550;2023-05-01T06:08:09;95941;;;14.38;64.51
2711;BME280;20721;47.402;8.550;2023-05-01T06:10:07;95941;;;14.39;64.71
2711;BME280;20721;47.402;8.550;2023-05-01T06:11:07;95939;;;14.40;64.49
2711;BME280;20721;47.402;8.550;2023-05-01T06:13:14;95940;;;14.41;64.79
2711;BME280;20721;47.402;8.550;2023-05-01T06:14:06;95942;;;14.38;64.81
2711;BME280;20721;47.402;8.550;2023-05-01T06:15:06;95939;;;14.37;64.23
2711;BME280;20721;47.402;8.550;2023-05-01T06:16:06;95940;;;14.39;64.74
2711;BME280;20721;47.402;8.550;2023-05-01T06:17:07;95937;;;14.40;64.78
2711;BME280;20721;47.402;8.550;2023-05-01T06:18:07;95938;;;14.42;64.64
2711;BME280;20721;47.402;8.550;2023-05-01T06:19:09;95936;;;14.44;64.66
2711;BME280;20721;47.402;8.550;2023-05-01T06:20:07;95938;;;14.45;64.86
2711;BME280;20721;47.402;8.550;2023-05-01T06:22:06;95934;;;14.48;65.11
2711;BME280;20721;47.402;8.550;2023-05-01T06:23:08;95933;;;14.50;65.06
2711;BME280;20721;47.402;8.550;2023-05-01T06:24:07;95939;;;14.53;64.66
2711;BME280;20721;47.402;8.550;2023-05-01T06:25:07;95935;;;14.54;65.09
2711;BME280;20721;47.402;8.550;2023-05-01T06:26:07;95935;;;14.55;64.76
2711;BME280;20721;47.402;8.550;2023-05-01T06:27:06;95936;;;14.53;64.35
2711;BME280;20721;47.402;8.550;2023-05-01T06:28:06;95936;;;14.54;64.50
2711;BME280;20721;47.402;8.550;2023-05-01T06:31:07;95935;;;14.56;64.29
2711;BME280;20721;47.402;8.550;2023-05-01T06:32:06;95936;;;14.59;64.25
2711;BME280;20721;47.402;8.550;2023-05-01T06:34:06;95936;;;14.61;64.68
2711;BME280;20721;47.402;8.550;2023-05-01T06:37:06;95932;;;14.55;64.07
2711;BME280;20721;47.402;8.550;2023-05-01T06:38:07;95935;;;14.54;64.36
2711;BME280;20721;47.402;8.550;2023-05-01T06:39:06;95935;;;14.52;64.65
2711;BME280;20721;47.402;8.550;2023-05-01T06:41:06;95932;;;14.49;64.48
2711;BME280;20721;47.402;8.550;2023-05-01T06:42:06;95937;;;14.50;64.73
2711;BME280;20721;47.402;8.550;2023-05-01T06:43:06;95935;;;14.51;64.91
2711;BME280;20721;47.402;8.550;2023-05-01T06:44:06;95937;;;14.54;64.69
2711;BME280;20721;47.402;8.550;2023-05-01T06:45:07;95936;;;14.57;64.59
2711;BME280;20721;47.402;8.550;2023-05-01T06:46:06;95940;;;14.61;64.54
2711;BME280;20721;47.402;8.550;2023-05-01T06:47:06;95940;;;14.64;64.58
2711;BME280;20721;47.402;8.550;2023-05-01T06:48:07;95937;;;14.66;64.82
2711;BME280;20721;47.402;8.550;2023-05-01T06:49:07;95940;;;14.68;64.60
2711;BME280;20721;47.402;8.550;2023-05-01T06:50:07;95939;;;14.71;64.76
2711;BME280;20721;47.402;8.550;2023-05-01T06:51:06;95936;;;14.73;64.53
2711;BME280;20721;47.402;8.550;2023-05-01T06:52:06;95934;;;14.70;64.51
2711;BME280;20721;47.402;8.550;2023-05-01T06:53:06;95942;;;14.71;64.74
2711;BME280;20721;47.402;8.550;2023-05-01T06:54:07;95940;;;14.66;64.24
2711;BME280;20721;47.402;8.550;2023-05-01T06:55:07;95942;;;14.63;64.28
2711;BME280;20721;47.402;8.550;2023-05-01T06:56:07;95942;;;14.44;63.80
2711;BME280;20721;47.402;8.550;2023-05-01T06:57:06;95944;;;14.35;64.60
2711;BME280;20721;47.402;8.550;2023-05-01T06:58:16;95943;;;14.34;65.20
2711;BME280;20721;47.402;8.550;2023-05-01T06:59:07;95943;;;14.37;65.46
2711;BME280;20721;47.402;8.550;2023-05-01T07:00:07;95944;;;14.45;65.37
2711;BME280;20721;47.402;8.550;2023-05-01T07:01:07;95946;;;14.51;65.36
2711;BME280;20721;47.402;8.550;2023-05-01T07:02:07;95947;;;14.54;65.81
2711;BME280;20721;47.402;8.550;2023-05-01T07:03:07;95948;;;14.57;65.17
2711;BME280;20721;47.402;8.550;2023-05-01T07:04:06;95951;;;14.50;64.64
2711;BME280;20721;47.402;8.550;2023-05-01T07:05:07;95946;;;14.42;64.35
2711;BME280;20721;47.402;8.550;2023-05-01T07:06:07;95951;;;14.39;65.26
2711;BME280;20721;47.402;8.550;2023-05-01T07:07:06;95949;;;14.42;64.93
2711;BME280;20721;47.402;8.550;2023-05-01T07:08:08;95951;;;14.45;64.84
2711;BME280;20721;47.402;8.550;2023-05-01T07:09:06;95950;;;14.40;64.22
2711;BME280;20721;47.402;8.550;2023-05-01T07:10:07;95952;;;14.24;64.52
2711;BME280;20721;47.402;8.550;2023-05-01T07:11:07;95953;;;14.07;65.24
2711;BME280;20721;47.402;8.550;2023-05-01T07:12:06;95952;;;14.03;65.39
2711;BME280;20721;47.402;8.550;2023-05-01T07:13:07;95954;;;14.00;65.76
2711;BME280;20721;47.402;8.550;2023-05-01T07:14:07;95957;;;13.96;66.32
2711;BME280;20721;47.402;8.550;2023-05-01T07:15:07;95956;;;13.97;66.47
2711;BME280;20721;47.402;8.550;2023-05-01T07:16:07;95957;;;14.00;67.33
2711;BME280;20721;47.402;8.550;2023-05-01T07:17:08;95955;;;14.05;66.62
2711;BME280;20721;47.402;8.550;2023-05-01T07:18:07;95950;;;14.14;65.97
2711;BME280;20721;47.402;8.550;2023-05-01T07:19:07;95950;;;14.25;66.24
2711;BME280;20721;47.402;8.550;2023-05-01T07:20:07;95949;;;14.34;66.21
2711;BME280;20721;47.402;8.550;2023-05-01T07:21:09;95952;;;14.42;65.74
2711;BME280;20721;47.402;8.550;2023-05-01T07:22:06;95950;;;14.52;65.71